createdAt,value
2018-05-21T00:01:11.650Z,11.44
2018-05-21T00:03:39.936Z,11.33
2018-05-21T00:06:09.188Z,11.49
2018-05-21T00:08:38.489Z,11.32
2018-05-21T00:11:06.776Z,11.33
2018-05-21T00:13:35.860Z,11.34
2018-05-21T00:16:05.629Z,11.26
2018-05-21T00:18:35.602Z,11.14
2018-05-21T00:21:05.167Z,11.12
2018-05-21T00:23:34.321Z,11.25
2018-05-21T00:26:06.940Z,11.09
2018-05-21T00:28:38.041Z,11.18
2018-05-21T00:31:06.415Z,11.23
2018-05-21T00:33:34.709Z,11.25
2018-05-21T00:36:04.498Z,11.09
2018-05-21T00:38:32.811Z,11.07
2018-05-21T00:41:01.109Z,10.95
2018-05-21T00:43:30.301Z,11.05
2018-05-21T00:45:59.465Z,11.03
2018-05-21T00:48:27.799Z,10.87
2018-05-21T00:50:58.725Z,10.74
2018-05-21T00:53:28.088Z,10.85
2018-05-21T00:55:56.866Z,10.95
2018-05-21T00:58:25.158Z,10.87
2018-05-21T01:00:54.990Z,10.89
2018-05-21T01:03:23.954Z,11.00
2018-05-21T01:05:52.750Z,11.08
2018-05-21T01:08:21.892Z,11.02
2018-05-21T01:10:51.882Z,10.82
2018-05-21T01:13:21.394Z,10.92
2018-05-21T01:15:51.119Z,10.80
2018-05-21T01:18:20.191Z,10.82
2018-05-21T01:20:48.561Z,10.81
2018-05-21T01:23:16.865Z,10.59
2018-05-21T01:25:46.428Z,10.66
2018-05-21T01:28:14.650Z,10.64
2018-05-21T01:30:43.322Z,10.58
2018-05-21T01:33:11.774Z,10.50
2018-05-21T01:35:41.679Z,10.33
2018-05-21T01:38:10.083Z,10.44
2018-05-21T01:40:39.391Z,10.45
2018-05-21T01:43:09.598Z,10.28
2018-05-21T01:45:37.895Z,10.39
2018-05-21T01:48:06.199Z,10.24
2018-05-21T01:50:35.298Z,9.99
2018-05-21T01:53:04.641Z,9.89
2018-05-21T01:55:34.787Z,9.89
2018-05-21T01:58:03.726Z,9.99
2018-05-21T02:00:32.835Z,9.93
2018-05-21T02:03:01.139Z,9.75
2018-05-21T02:05:29.849Z,9.99
2018-05-21T02:07:58.183Z,9.73
2018-05-21T02:10:26.469Z,9.68
2018-05-21T02:12:54.735Z,9.71
2018-05-21T02:15:23.238Z,9.60
2018-05-21T02:17:52.712Z,9.58
2018-05-21T02:20:22.861Z,9.65
2018-05-21T02:22:51.490Z,9.79
2018-05-21T02:25:20.294Z,9.78
2018-05-21T02:27:48.581Z,9.74
2018-05-21T02:30:17.761Z,9.73
2018-05-21T02:32:46.653Z,9.60
2018-05-21T02:35:16.442Z,9.60
2018-05-21T02:37:45.247Z,9.55
2018-05-21T02:40:14.408Z,9.70
2018-05-21T02:42:42.718Z,9.60
2018-05-21T02:45:11.687Z,9.67
2018-05-21T02:47:40.497Z,9.58
2018-05-21T02:50:08.877Z,9.52
2018-05-21T02:52:38.141Z,9.56
2018-05-21T02:55:06.454Z,9.64
2018-05-21T02:57:34.867Z,9.48
2018-05-21T03:00:03.362Z,9.54
2018-05-21T03:02:33.134Z,9.51
2018-05-21T03:05:01.439Z,9.42
2018-05-21T03:07:30.918Z,9.44
2018-05-21T03:09:59.226Z,9.36
2018-05-21T03:12:27.985Z,9.40
2018-05-21T03:14:57.001Z,9.52
2018-05-21T03:17:25.387Z,9.46
2018-05-21T03:19:55.272Z,9.43
2018-05-21T03:22:25.046Z,9.47
2018-05-21T03:24:53.603Z,9.44
2018-05-21T03:27:22.662Z,9.39
2018-05-21T03:29:50.969Z,9.44
2018-05-21T03:32:19.320Z,9.40
2018-05-21T03:34:47.719Z,9.56
2018-05-21T03:37:16.875Z,9.43
2018-05-21T03:39:45.175Z,9.43
2018-05-21T03:42:14.058Z,9.34
2018-05-21T03:44:42.658Z,9.41
2018-05-21T03:47:12.181Z,9.45
2018-05-21T03:49:41.853Z,9.54
2018-05-21T03:52:10.160Z,9.53
2018-05-21T03:54:38.533Z,9.55
2018-05-21T03:57:07.738Z,9.45
2018-05-21T03:59:53.837Z,9.66
2018-05-21T04:02:39.974Z,9.78
2018-05-21T04:05:09.022Z,9.84
2018-05-21T04:07:38.236Z,9.87
2018-05-21T04:10:06.903Z,9.86
2018-05-21T04:12:35.179Z,9.98
2018-05-21T04:15:03.685Z,10.19
2018-05-21T04:17:31.959Z,10.29
2018-05-21T04:20:00.868Z,10.19
2018-05-21T04:22:30.300Z,10.46
2018-05-21T04:24:59.519Z,10.38
2018-05-21T04:27:28.243Z,10.45
2018-05-21T04:29:57.350Z,10.55
2018-05-21T04:32:26.378Z,10.54
2018-05-21T04:34:54.756Z,10.57
2018-05-21T04:37:23.285Z,10.62
2018-05-21T04:39:52.052Z,10.77
2018-05-21T04:42:20.763Z,10.82
2018-05-21T04:44:49.234Z,10.92
2018-05-21T04:47:18.249Z,11.07
2018-05-21T04:49:46.837Z,11.13
2018-05-21T04:52:15.143Z,11.14
2018-05-21T04:54:45.553Z,11.16
2018-05-21T04:57:14.758Z,11.20
2018-05-21T04:59:43.178Z,11.39
2018-05-21T05:02:12.843Z,11.30
2018-05-21T05:04:41.514Z,11.39
2018-05-21T05:07:11.379Z,11.34
2018-05-21T05:09:39.669Z,11.44
2018-05-21T05:12:07.978Z,11.50
2018-05-21T05:14:36.377Z,11.54
2018-05-21T05:17:04.743Z,11.58
2018-05-21T05:19:33.897Z,11.54
2018-05-21T05:22:02.314Z,11.64
2018-05-21T05:24:31.357Z,11.77
2018-05-21T05:27:00.505Z,11.65
2018-05-21T05:29:29.675Z,11.91
2018-05-21T05:31:58.413Z,11.87
2018-05-21T05:34:27.121Z,11.85
2018-05-21T05:36:56.220Z,11.96
2018-05-21T05:39:25.314Z,12.03
2018-05-21T05:41:54.451Z,12.11
2018-05-21T05:44:23.240Z,12.20
2018-05-21T05:46:52.344Z,12.31
2018-05-21T05:49:21.188Z,12.38
2018-05-21T05:51:50.307Z,12.46
2018-05-21T05:54:19.401Z,12.47
2018-05-21T05:56:48.531Z,12.65
2018-05-21T05:59:17.862Z,12.73
2018-05-21T06:01:46.449Z,12.86
2018-05-21T06:04:14.917Z,13.00
2018-05-21T06:06:43.206Z,13.08
2018-05-21T06:09:11.961Z,13.20
2018-05-21T06:11:40.373Z,13.41
2018-05-21T06:14:09.205Z,13.47
2018-05-21T06:16:39.740Z,13.45
2018-05-21T06:19:08.508Z,13.56
2018-05-21T06:21:37.648Z,13.65
2018-05-21T06:24:05.970Z,13.91
2018-05-21T06:26:35.079Z,14.02
2018-05-21T06:29:04.140Z,14.13
2018-05-21T06:31:32.936Z,14.22
2018-05-21T06:34:01.296Z,14.31
2018-05-21T06:36:30.115Z,14.54
2018-05-21T06:38:58.946Z,14.52
2018-05-21T06:41:28.543Z,14.53
2018-05-21T06:43:57.706Z,14.59
2018-05-21T06:46:26.293Z,14.66
2018-05-21T06:48:55.297Z,14.93
2018-05-21T06:51:24.353Z,14.93
2018-05-21T06:53:52.670Z,14.95
2018-05-21T06:56:21.854Z,15.12
2018-05-21T06:58:51.111Z,15.14
2018-05-21T07:01:20.094Z,15.27
2018-05-21T07:03:50.022Z,15.50
2018-05-21T07:06:19.715Z,15.70
2018-05-21T07:08:49.590Z,15.73
2018-05-21T07:11:18.374Z,16.02
2018-05-21T07:13:46.681Z,16.24
2018-05-21T07:16:15.590Z,16.33
2018-05-21T07:18:44.675Z,16.44
2018-05-21T07:21:14.733Z,16.51
2018-05-21T07:23:43.054Z,16.51
2018-05-21T07:26:11.374Z,16.70
2018-05-21T07:28:39.907Z,16.81
2018-05-21T07:31:08.210Z,16.86
2018-05-21T07:33:36.988Z,16.84
2018-05-21T07:36:05.306Z,16.84
2018-05-21T07:38:34.569Z,16.86
2018-05-21T07:41:02.881Z,16.96
2018-05-21T07:43:32.009Z,17.15
2018-05-21T07:46:00.302Z,17.34
2018-05-21T07:48:28.655Z,17.49
2018-05-21T07:50:56.974Z,17.64
2018-05-21T07:53:25.285Z,17.75
2018-05-21T07:55:54.384Z,17.80
2018-05-21T07:58:23.457Z,17.86
2018-05-21T08:00:51.790Z,17.92
2018-05-21T08:03:20.114Z,17.91
2018-05-21T08:05:48.493Z,18.12
2018-05-21T08:08:16.837Z,18.21
2018-05-21T08:10:45.184Z,18.16
2018-05-21T08:13:13.531Z,18.21
2018-05-21T08:15:42.026Z,18.30
2018-05-21T08:18:11.239Z,18.41
2018-05-21T08:20:40.318Z,18.37
2018-05-21T08:23:08.626Z,18.42
2018-05-21T08:25:37.838Z,18.49
2018-05-21T08:28:06.139Z,18.78
2018-05-21T08:30:34.708Z,18.71
2018-05-21T08:33:03.044Z,18.82
2018-05-21T08:35:32.131Z,18.96
2018-05-21T08:38:00.758Z,19.27
2018-05-21T08:40:29.575Z,19.15
2018-05-21T08:42:58.425Z,19.23
2018-05-21T08:45:26.858Z,19.36
2018-05-21T08:47:55.952Z,19.44
2018-05-21T08:50:24.398Z,19.44
2018-05-21T08:52:52.799Z,19.43
2018-05-21T08:55:21.135Z,19.53
2018-05-21T08:57:50.224Z,19.59
2018-05-21T09:00:19.303Z,19.66
2018-05-21T09:02:47.701Z,19.81
2018-05-21T09:05:16.521Z,19.88
2018-05-21T09:07:45.087Z,20.07
2018-05-21T09:10:15.318Z,20.19
2018-05-21T09:12:43.613Z,20.09
2018-05-21T09:15:12.070Z,20.32
2018-05-21T09:17:41.597Z,20.31
2018-05-21T09:20:09.907Z,20.44
2018-05-21T09:22:38.540Z,20.50
2018-05-21T09:25:10.637Z,20.48
2018-05-21T09:27:38.933Z,20.64
2018-05-21T09:30:07.318Z,20.65
2018-05-21T09:32:35.677Z,20.76
2018-05-21T09:35:05.589Z,20.90
2018-05-21T09:37:34.647Z,20.82
2018-05-21T09:40:03.897Z,20.94
2018-05-21T09:42:32.180Z,20.92
2018-05-21T09:45:00.463Z,20.95
2018-05-21T09:47:29.879Z,21.02
2018-05-21T09:49:58.949Z,21.17
2018-05-21T09:52:27.829Z,21.28
2018-05-21T09:54:57.058Z,21.21
2018-05-21T09:57:25.353Z,21.24
2018-05-21T09:59:54.404Z,21.26
2018-05-21T10:02:23.088Z,21.33
2018-05-21T10:04:51.398Z,21.33
2018-05-21T10:07:19.708Z,21.45
2018-05-21T10:09:49.500Z,21.42
2018-05-21T10:12:18.003Z,21.68
2018-05-21T10:14:47.109Z,21.70
2018-05-21T10:17:16.268Z,21.67
2018-05-21T10:19:44.563Z,21.68
2018-05-21T10:22:14.149Z,21.84
2018-05-21T10:24:42.824Z,21.85
2018-05-21T10:27:11.602Z,21.78
2018-05-21T10:29:40.781Z,21.75
2018-05-21T10:32:09.989Z,21.85
2018-05-21T10:34:38.292Z,21.91
2018-05-21T10:37:06.697Z,22.09
2018-05-21T10:39:35.640Z,22.38
2018-05-21T10:42:04.066Z,22.33
2018-05-21T10:44:33.344Z,22.36
2018-05-21T10:47:02.329Z,22.09
2018-05-21T10:49:30.631Z,22.17
2018-05-21T10:51:59.599Z,22.06
2018-05-21T10:54:28.199Z,22.09
2018-05-21T10:56:56.509Z,22.23
2018-05-21T10:59:25.579Z,22.20
2018-05-21T11:01:53.962Z,22.32
2018-05-21T11:04:22.298Z,22.42
2018-05-21T11:06:51.217Z,22.48
2018-05-21T11:09:19.543Z,22.50
2018-05-21T11:11:47.899Z,22.48
2018-05-21T11:14:16.323Z,22.60
2018-05-21T11:16:46.254Z,22.63
2018-05-21T11:19:14.950Z,22.62
2018-05-21T11:21:44.521Z,22.62
2018-05-21T11:24:14.193Z,22.68
2018-05-21T11:26:42.499Z,22.86
2018-05-21T11:29:12.368Z,23.04
2018-05-21T11:31:42.311Z,23.25
2018-05-21T11:34:10.893Z,23.16
2018-05-21T11:36:40.118Z,23.27
2018-05-21T11:39:08.461Z,23.11
2018-05-21T11:41:36.840Z,23.28
2018-05-21T11:44:05.446Z,23.36
2018-05-21T11:46:33.749Z,23.21
2018-05-21T11:49:03.147Z,23.19
2018-05-21T11:51:31.457Z,23.32
2018-05-21T11:54:00.333Z,23.43
2018-05-21T11:56:29.592Z,23.59
2018-05-21T11:58:58.399Z,23.57
2018-05-21T12:01:26.790Z,23.49
2018-05-21T12:03:55.852Z,23.72
2018-05-21T12:06:24.251Z,23.90
2018-05-21T12:08:53.032Z,23.95
2018-05-21T12:11:22.710Z,24.17
2018-05-21T12:13:51.330Z,24.44
2018-05-21T12:16:20.515Z,24.60
2018-05-21T12:18:48.968Z,24.56
2018-05-21T12:21:17.280Z,25.30
2018-05-21T12:23:45.659Z,26.12
2018-05-21T12:26:14.041Z,27.38
2018-05-21T12:28:42.432Z,28.79
2018-05-21T12:31:10.962Z,28.91
2018-05-21T12:33:40.202Z,28.81
2018-05-21T12:36:08.538Z,29.15
2018-05-21T12:38:37.921Z,28.68
2018-05-21T12:41:07.813Z,29.20
2018-05-21T12:43:36.174Z,30.17
2018-05-21T12:46:04.461Z,29.57
2018-05-21T12:48:32.762Z,29.74
2018-05-21T12:51:01.952Z,28.73
2018-05-21T12:53:31.253Z,30.01
2018-05-21T12:55:59.738Z,29.66
2018-05-21T12:58:30.254Z,29.08
2018-05-21T13:00:58.951Z,29.66
2018-05-21T13:03:28.639Z,30.04
2018-05-21T13:05:57.474Z,30.32
2018-05-21T13:08:27.256Z,30.25
2018-05-21T13:10:56.692Z,29.55
2018-05-21T13:13:26.579Z,29.24
2018-05-21T13:15:54.955Z,29.69
2018-05-21T13:18:24.286Z,29.45
2018-05-21T13:20:53.334Z,29.05
2018-05-21T13:23:21.963Z,29.47
2018-05-21T13:25:51.423Z,30.23
2018-05-21T13:28:21.351Z,29.97
2018-05-21T13:30:50.042Z,29.88
2018-05-21T13:33:18.922Z,29.93
2018-05-21T13:35:47.389Z,30.26
2018-05-21T13:38:16.365Z,31.34
2018-05-21T13:40:44.864Z,31.59
2018-05-21T13:43:13.734Z,32.12
2018-05-21T13:45:42.094Z,30.66
2018-05-21T13:48:11.076Z,30.12
2018-05-21T13:50:39.406Z,30.42
2018-05-21T13:53:07.707Z,30.34
2018-05-21T13:55:36.037Z,31.01
2018-05-21T13:58:06.100Z,30.99
2018-05-21T14:00:35.700Z,29.54
2018-05-21T14:03:04.154Z,30.77
2018-05-21T14:05:33.845Z,31.25
2018-05-21T14:08:02.911Z,31.16
2018-05-21T14:10:31.250Z,30.61
2018-05-21T14:12:59.561Z,29.68
2018-05-21T14:15:28.620Z,29.67
2018-05-21T14:17:56.906Z,31.02
2018-05-21T14:20:25.610Z,32.55
2018-05-21T14:22:55.108Z,31.19
2018-05-21T14:25:23.440Z,30.74
2018-05-21T14:27:52.362Z,30.61
2018-05-21T14:30:21.609Z,30.24
2018-05-21T14:32:50.755Z,30.57
2018-05-21T14:35:20.302Z,30.36
2018-05-21T14:37:48.621Z,30.05
2018-05-21T14:40:17.104Z,30.27
2018-05-21T14:42:45.581Z,30.55
2018-05-21T14:45:14.502Z,30.02
2018-05-21T14:47:43.404Z,30.23
2018-05-21T14:50:11.850Z,30.15
2018-05-21T14:52:40.771Z,29.37
2018-05-21T14:55:09.095Z,28.11
2018-05-21T14:57:37.411Z,29.73
2018-05-21T15:00:06.470Z,30.20
2018-05-21T15:02:34.811Z,30.36
2018-05-21T15:05:04.480Z,30.96
2018-05-21T15:07:34.082Z,30.21
2018-05-21T15:10:03.300Z,30.10
2018-05-21T15:12:33.887Z,29.12
2018-05-21T15:15:04.491Z,29.61
2018-05-21T15:17:32.913Z,29.39
2018-05-21T15:20:02.681Z,30.19
2018-05-21T15:22:30.976Z,29.56
2018-05-21T15:24:59.336Z,29.98
2018-05-21T15:27:28.957Z,29.67
2018-05-21T15:29:57.847Z,29.25
2018-05-21T15:32:27.636Z,29.57
2018-05-21T15:34:56.032Z,29.32
2018-05-21T15:37:24.314Z,29.46
2018-05-21T15:39:52.934Z,29.40
2018-05-21T15:42:21.642Z,29.77
2018-05-21T15:44:51.616Z,28.99
2018-05-21T15:47:20.014Z,29.58
2018-05-21T15:49:48.323Z,30.28
2018-05-21T15:52:16.628Z,30.21
2018-05-21T15:54:45.754Z,29.71
2018-05-21T15:57:14.937Z,30.50
2018-05-21T15:59:43.354Z,29.97
2018-05-21T16:02:11.666Z,29.12
2018-05-21T16:04:40.239Z,29.18
2018-05-21T16:07:08.549Z,28.92
2018-05-21T16:09:39.086Z,28.52
2018-05-21T16:12:07.430Z,28.45
2018-05-21T16:14:35.764Z,28.85
2018-05-21T16:17:04.140Z,28.52
2018-05-21T16:19:32.463Z,28.24
2018-05-21T16:22:00.797Z,28.15
2018-05-21T16:24:29.104Z,28.45
2018-05-21T16:26:57.409Z,28.38
2018-05-21T16:29:26.333Z,27.78
2018-05-21T16:31:55.485Z,27.92
2018-05-21T16:34:24.318Z,27.93
2018-05-21T16:36:52.753Z,28.05
2018-05-21T16:39:22.591Z,28.16
2018-05-21T16:41:52.343Z,27.97
2018-05-21T16:44:22.226Z,28.38
2018-05-21T16:46:52.211Z,28.66
2018-05-21T16:49:21.598Z,28.31
2018-05-21T16:51:49.904Z,28.29
2018-05-21T16:54:18.265Z,27.43
2018-05-21T16:56:46.555Z,27.83
2018-05-21T16:59:15.705Z,27.32
2018-05-21T17:01:45.144Z,27.92
2018-05-21T17:04:14.237Z,27.71
2018-05-21T17:06:43.214Z,27.07
2018-05-21T17:09:12.331Z,26.57
2018-05-21T17:11:40.637Z,25.87
2018-05-21T17:14:08.939Z,25.79
2018-05-21T17:16:38.019Z,25.04
2018-05-21T17:19:07.934Z,24.96
2018-05-21T17:21:37.016Z,24.28
2018-05-21T17:24:05.758Z,24.68
2018-05-21T17:26:34.535Z,24.05
2018-05-21T17:29:03.170Z,23.79
2018-05-21T17:31:32.306Z,23.55
2018-05-21T17:34:02.613Z,23.14
2018-05-21T17:36:31.982Z,22.54
2018-05-21T17:39:00.282Z,22.27
2018-05-21T17:41:30.425Z,21.91
2018-05-21T17:43:59.513Z,22.10
2018-05-21T17:46:28.602Z,21.86
2018-05-21T17:48:57.865Z,21.47
2018-05-21T17:51:27.022Z,21.56
2018-05-21T17:53:56.107Z,21.42
2018-05-21T17:56:24.416Z,21.53
2018-05-21T17:58:53.216Z,21.39
2018-05-21T18:01:23.009Z,21.42
2018-05-21T18:03:52.070Z,21.39
2018-05-21T18:06:21.216Z,21.39
2018-05-21T18:08:50.317Z,21.36
2018-05-21T18:11:19.546Z,21.43
2018-05-21T18:13:47.873Z,21.20
2018-05-21T18:16:17.353Z,20.90
2018-05-21T18:18:47.085Z,20.75
2018-05-21T18:21:15.374Z,20.55
2018-05-21T18:23:44.634Z,20.18
2018-05-21T18:26:13.249Z,20.06
2018-05-21T18:28:44.879Z,20.10
2018-05-21T18:31:14.680Z,19.91
2018-05-21T18:33:42.976Z,19.88
2018-05-21T18:36:12.861Z,19.94
2018-05-21T18:38:41.603Z,19.69
2018-05-21T18:41:10.717Z,19.73
2018-05-21T18:43:39.645Z,19.48
2018-05-21T18:46:08.035Z,19.37
2018-05-21T18:48:36.707Z,19.31
2018-05-21T18:51:05.074Z,19.18
2018-05-21T18:53:34.814Z,19.18
2018-05-21T18:56:03.514Z,19.02
2018-05-21T18:58:32.150Z,18.79
2018-05-21T19:01:01.325Z,18.75
2018-05-21T19:03:30.484Z,18.61
2018-05-21T19:05:59.377Z,18.74
2018-05-21T19:08:27.951Z,18.54
2018-05-21T19:10:57.896Z,18.60
2018-05-21T19:13:28.601Z,18.44
2018-05-21T19:15:57.605Z,18.18
2018-05-21T19:18:26.304Z,18.28
2018-05-21T19:20:54.913Z,18.21
2018-05-21T19:23:24.613Z,17.89
2018-05-21T19:25:53.700Z,17.94
2018-05-21T19:28:22.391Z,17.74
2018-05-21T19:30:51.455Z,17.78
2018-05-21T19:33:19.754Z,17.65
2018-05-21T19:35:48.637Z,17.60
2018-05-21T19:38:17.758Z,17.55
2018-05-21T19:40:46.088Z,17.47
2018-05-21T19:43:14.700Z,17.47
2018-05-21T19:45:43.782Z,17.41
2018-05-21T19:48:12.188Z,17.49
2018-05-21T19:50:40.627Z,17.32
2018-05-21T19:53:08.924Z,17.29
2018-05-21T19:55:37.266Z,17.11
2018-05-21T19:58:06.804Z,17.13
2018-05-21T20:00:35.497Z,17.03
2018-05-21T20:03:03.998Z,16.97
2018-05-21T20:05:33.192Z,16.85
2018-05-21T20:08:02.243Z,16.88
2018-05-21T20:10:30.682Z,16.74
2018-05-21T20:12:59.891Z,16.75
2018-05-21T20:15:29.937Z,16.72
2018-05-21T20:17:58.881Z,16.61
2018-05-21T20:20:43.141Z,16.57
2018-05-21T20:23:12.964Z,16.31
2018-05-21T20:25:41.883Z,16.32
2018-05-21T20:28:10.965Z,16.23
2018-05-21T20:30:39.258Z,16.26
2018-05-21T20:33:08.405Z,16.21
2018-05-21T20:35:37.608Z,16.01
2018-05-21T20:38:06.449Z,16.04
2018-05-21T20:40:35.558Z,16.11
2018-05-21T20:43:03.903Z,15.98
2018-05-21T20:45:32.962Z,15.85
2018-05-21T20:48:01.291Z,15.82
2018-05-21T20:50:30.563Z,15.74
2018-05-21T20:52:59.417Z,15.73
2018-05-21T20:55:27.736Z,15.72
2018-05-21T20:57:56.104Z,15.72
2018-05-21T21:00:24.404Z,15.70
2018-05-21T21:02:53.342Z,15.62
2018-05-21T21:05:22.888Z,15.66
2018-05-21T21:07:51.194Z,15.58
2018-05-21T21:10:20.264Z,15.54
2018-05-21T21:12:48.973Z,15.32
2018-05-21T21:15:18.059Z,15.40
2018-05-21T21:17:46.360Z,15.40
2018-05-21T21:20:15.457Z,15.23
2018-05-21T21:22:44.524Z,15.15
2018-05-21T21:25:12.817Z,15.21
2018-05-21T21:27:42.098Z,15.19
2018-05-21T21:30:10.382Z,15.31
2018-05-21T21:32:38.725Z,15.17
2018-05-21T21:35:07.880Z,15.15
2018-05-21T21:37:36.957Z,15.12
2018-05-21T21:40:05.270Z,15.08
2018-05-21T21:42:34.641Z,14.94
2018-05-21T21:45:02.935Z,14.95
2018-05-21T21:47:32.065Z,14.97
2018-05-21T21:50:01.097Z,14.98
2018-05-21T21:52:29.975Z,14.91
2018-05-21T21:54:58.372Z,14.82
2018-05-21T21:57:26.747Z,14.81
2018-05-21T21:59:55.079Z,14.90
2018-05-21T22:02:24.350Z,14.85
2018-05-21T22:04:53.746Z,14.94
2018-05-21T22:07:22.917Z,14.82
2018-05-21T22:09:52.072Z,14.83
2018-05-21T22:12:21.958Z,14.82
2018-05-21T22:14:51.561Z,14.80
2018-05-21T22:17:19.867Z,14.72
2018-05-21T22:19:49.058Z,14.76
2018-05-21T22:22:18.876Z,14.73
2018-05-21T22:24:47.963Z,14.66
2018-05-21T22:27:17.130Z,14.61
2018-05-21T22:29:45.425Z,14.50
2018-05-21T22:32:13.779Z,14.60
2018-05-21T22:34:42.311Z,14.52
2018-05-21T22:37:11.959Z,14.31
2018-05-21T22:39:40.287Z,14.42
2018-05-21T22:42:08.596Z,14.39
2018-05-21T22:44:42.806Z,14.35
2018-05-21T22:47:11.918Z,14.39
2018-05-21T22:49:41.058Z,14.24
2018-05-21T22:52:09.416Z,14.27
2018-05-21T22:54:37.763Z,14.25
2018-05-21T22:57:06.141Z,14.32
2018-05-21T22:59:34.797Z,14.17
2018-05-21T23:02:03.770Z,14.19
2018-05-21T23:04:32.140Z,14.07
2018-05-21T23:07:01.071Z,13.88
2018-05-21T23:09:30.199Z,14.07
2018-05-21T23:11:58.784Z,14.08
2018-05-21T23:14:28.441Z,13.96
2018-05-21T23:16:56.790Z,13.96
2018-05-21T23:19:25.139Z,13.86
2018-05-21T23:21:53.529Z,13.92
2018-05-21T23:24:22.488Z,13.97
2018-05-21T23:26:51.295Z,13.85
2018-05-21T23:29:20.159Z,13.96
2018-05-21T23:31:48.578Z,13.95
2018-05-21T23:34:17.647Z,13.78
2018-05-21T23:36:46.751Z,13.73
2018-05-21T23:39:15.414Z,13.84
2018-05-21T23:41:44.389Z,13.84
2018-05-21T23:44:12.677Z,13.81
2018-05-21T23:46:41.095Z,13.76
2018-05-21T23:49:10.171Z,13.70
2018-05-21T23:51:38.542Z,13.49
2018-05-21T23:54:07.533Z,13.54
2018-05-21T23:56:36.144Z,13.56
2018-05-21T23:59:04.489Z,13.45
